Time;durP1;ratioP1;P1;durP2;ratioP2;P2;SDS_P1;SDS_P2;PMS_P1;PMS_P2;Temp;Humidity;BMP_temperature;BMP_pressure;BME280_temperature;BME280_humidity;BME280_pressure;Samples;Min_cycle;Max_cycle;Signal;HPM_P1;HPM_P2
2022/06/17 00:00:17;;;;;;;6.30;4.43;;;14.70;99.90;;;;;;4997645;28;20190;-82
2022/06/17 00:02:42;;;;;;;8.53;4.17;;;14.50;99.90;;;;;;4999703;28;20194;-81
2022/06/17 00:05:09;;;;;;;9.53;4.17;;;14.60;99.90;;;;;;5003463;28;20174;-81
2022/06/17 00:07:35;;;;;;;6.50;4.20;;;14.60;99.90;;;;;;5004616;28;20214;-81
2022/06/17 00:10:02;;;;;;;6.80;4.37;;;14.40;99.90;;;;;;5004090;28;20180;-81
2022/06/17 00:12:28;;;;;;;7.77;4.83;;;14.40;99.90;;;;;;5003639;28;20195;-81
2022/06/17 00:15:12;;;;;;;11.37;4.53;;;14.40;99.90;;;;;;5004700;28;20183;-81
2022/06/17 00:17:38;;;;;;;5.87;4.10;;;14.40;99.90;;;;;;4998896;28;20276;-81
2022/06/17 00:20:12;;;;;;;6.53;4.37;;;14.60;99.90;;;;;;4997826;28;20183;-81
2022/06/17 00:22:40;;;;;;;7.60;4.40;;;14.50;99.90;;;;;;4997346;28;20226;-81
2022/06/17 00:25:24;;;;;;;6.57;5.13;;;14.40;99.90;;;;;;4998267;28;20198;-81
2022/06/17 00:27:50;;;;;;;9.93;4.57;;;14.30;99.90;;;;;;4997763;28;20171;-81
2022/06/17 00:30:22;;;;;;;7.30;4.30;;;14.40;99.90;;;;;;4998324;28;20564;-81
2022/06/17 00:32:52;;;;;;;6.53;4.87;;;14.30;99.90;;;;;;4997704;28;20200;-81
2022/06/17 00:35:18;;;;;;;6.67;4.80;;;14.30;99.90;;;;;;4998494;28;20175;-81
2022/06/17 00:37:44;;;;;;;6.83;4.50;;;14.30;99.90;;;;;;4997991;28;20218;-81
2022/06/17 00:40:20;;;;;;;7.40;5.00;;;14.30;99.90;;;;;;5000134;28;20171;-81
2022/06/17 00:42:47;;;;;;;7.37;4.93;;;14.40;99.90;;;;;;4998031;28;20591;-81
2022/06/17 00:45:27;;;;;;;9.37;4.57;;;14.30;99.90;;;;;;4997839;28;20178;-81
2022/06/17 00:48:16;;;;;;;13.73;5.17;;;14.20;99.90;;;;;;4997804;28;20181;-81
2022/06/17 00:50:59;;;;;;;7.40;5.40;;;14.00;99.90;;;;;;4997374;28;20579;-81
2022/06/17 00:53:30;;;;;;;8.33;5.13;;;14.00;99.90;;;;;;4998319;28;20201;-81
2022/06/17 00:56:02;;;;;;;6.47;4.73;;;14.30;99.90;;;;;;4997978;28;20185;-81
2022/06/17 00:58:53;;;;;;;6.53;5.23;;;14.10;99.90;;;;;;4997778;28;20199;-81
2022/06/17 01:01:19;;;;;;;5.40;4.57;;;14.10;99.90;;;;;;4998031;28;20171;-81
2022/06/17 01:03:49;;;;;;;8.87;5.10;;;14.20;99.90;;;;;;4998080;28;20172;-81
2022/06/17 01:06:17;;;;;;;6.33;5.03;;;14.30;99.90;;;;;;4998164;28;20698;-81
2022/06/17 01:11:33;;;;;;;7.87;5.27;;;14.10;99.90;;;;;;4999074;28;20202;-81
2022/06/17 01:14:00;;;;;;;9.63;5.23;;;14.00;99.90;;;;;;4997963;28;20178;-81
2022/06/17 01:16:32;;;;;;;7.17;5.07;;;14.00;99.90;;;;;;4999161;28;20187;-81
2022/06/17 01:19:16;;;;;;;8.80;5.20;;;13.90;99.90;;;;;;5004483;28;20159;-81
2022/06/17 01:22:15;;;;;;;9.40;4.87;;;13.80;99.90;;;;;;4983143;28;20203;-81
2022/06/17 01:24:43;;;;;;;7.00;5.37;;;13.80;99.90;;;;;;4988293;28;20280;-81
2022/06/17 01:27:08;;;;;;;8.97;5.47;;;13.70;99.90;;;;;;4996011;28;20190;-81
2022/06/17 01:29:34;;;;;;;10.10;5.77;;;13.70;99.90;;;;;;4996285;28;20266;-81
2022/06/17 01:32:01;;;;;;;10.23;4.50;;;13.70;99.90;;;;;;4995413;28;20203;-81
2022/06/17 01:34:27;;;;;;;8.10;5.23;;;13.80;99.90;;;;;;4996750;28;20183;-81
2022/06/17 01:36:54;;;;;;;7.33;5.13;;;13.70;99.90;;;;;;4995899;28;20297;-81
2022/06/17 01:39:20;;;;;;;9.63;5.60;;;13.50;99.90;;;;;;4996881;28;20283;-81
2022/06/17 01:41:47;;;;;;;8.40;5.40;;;13.70;99.90;;;;;;4996643;28;20253;-81
2022/06/17 01:44:22;;;;;;;8.57;5.57;;;13.70;99.90;;;;;;4997310;28;20188;-81
2022/06/17 01:46:52;;;;;;;12.80;6.23;;;13.80;99.90;;;;;;4996275;28;20185;-81
2022/06/17 01:49:48;;;;;;;7.83;5.53;;;13.60;99.90;;;;;;4997388;28;20174;-81
2022/06/17 01:52:29;;;;;;;10.60;5.37;;;13.70;99.90;;;;;;4996549;28;20209;-81
2022/06/17 01:55:18;;;;;;;7.70;5.97;;;13.60;99.90;;;;;;4996360;28;20266;-81
2022/06/17 01:57:51;;;;;;;8.53;5.50;;;13.70;99.90;;;;;;4996298;28;20209;-81
2022/06/17 02:00:20;;;;;;;9.33;5.33;;;13.60;99.90;;;;;;4995642;28;20175;-81
2022/06/17 02:02:53;;;;;;;10.20;5.33;;;13.40;99.90;;;;;;4995855;28;20619;-81
2022/06/17 02:05:21;;;;;;;12.73;5.33;;;13.50;99.90;;;;;;4995356;28;20184;-81
2022/06/17 02:07:52;;;;;;;10.10;5.37;;;13.50;99.90;;;;;;4998148;28;20195;-81
2022/06/17 02:10:24;;;;;;;8.30;5.77;;;13.50;99.90;;;;;;5000229;28;20171;-81
2022/06/17 02:12:50;;;;;;;10.87;5.70;;;13.50;99.90;;;;;;4999826;28;20217;-81
2022/06/17 02:15:17;;;;;;;7.80;5.57;;;13.50;99.90;;;;;;5000790;28;20182;-81
2022/06/17 02:17:47;;;;;;;11.33;5.90;;;13.40;99.90;;;;;;5000211;28;20206;-81
2022/06/17 02:20:15;;;;;;;9.37;5.53;;;13.40;99.90;;;;;;5000466;28;20210;-81
2022/06/17 02:22:43;;;;;;;9.57;5.47;;;13.30;99.90;;;;;;5000236;28;20699;-81
2022/06/17 02:25:17;;;;;;;8.57;5.53;;;13.40;99.90;;;;;;4999769;28;20635;-81
2022/06/17 02:27:44;;;;;;;9.97;5.80;;;13.50;99.90;;;;;;4999794;28;20237;-81
2022/06/17 02:30:11;;;;;;;10.93;5.60;;;13.20;99.90;;;;;;5000634;28;20229;-81
2022/06/17 02:32:38;;;;;;;12.40;5.93;;;13.30;99.90;;;;;;4999362;28;20225;-81
2022/06/17 02:35:31;;;;;;;10.40;6.10;;;13.40;99.90;;;;;;5000035;28;20175;-81
2022/06/17 02:37:57;;;;;;;11.50;5.90;;;13.30;99.90;;;;;;4999715;28;20237;-81
2022/06/17 02:40:29;;;;;;;8.10;5.93;;;13.30;99.90;;;;;;4998935;28;20224;-81
2022/06/17 02:42:56;;;;;;;9.63;6.47;;;13.30;99.90;;;;;;4998682;28;20685;-81
2022/06/17 02:45:26;;;;;;;11.40;6.83;;;13.40;99.90;;;;;;4999000;28;20178;-81
2022/06/17 02:47:53;;;;;;;13.40;7.10;;;13.20;99.90;;;;;;4999402;28;20207;-81
2022/06/17 02:50:24;;;;;;;8.40;6.23;;;13.20;99.90;;;;;;5000034;28;20176;-81
2022/06/17 02:52:52;;;;;;;11.87;6.60;;;13.10;99.90;;;;;;4999635;28;20289;-81
2022/06/17 02:55:35;;;;;;;9.90;7.10;;;13.10;99.90;;;;;;4999436;28;20175;-81
2022/06/17 02:58:23;;;;;;;9.10;6.60;;;13.20;99.90;;;;;;5000033;28;20331;-81
2022/06/17 03:00:51;;;;;;;9.53;6.23;;;13.00;99.90;;;;;;4998740;28;20249;-81
2022/06/17 03:03:19;;;;;;;10.43;6.60;;;12.90;99.90;;;;;;4998968;28;20228;-81
2022/06/17 03:05:45;;;;;;;11.73;5.93;;;13.10;99.90;;;;;;4999049;28;20177;-81
2022/06/17 03:08:21;;;;;;;11.13;6.37;;;13.10;99.90;;;;;;4999315;28;20251;-81
2022/06/17 03:10:48;;;;;;;13.77;6.97;;;13.00;99.90;;;;;;4999711;28;20228;-81
2022/06/17 03:13:20;;;;;;;9.07;6.57;;;13.10;99.90;;;;;;4999002;28;20264;-81
2022/06/17 03:15:49;;;;;;;9.33;6.30;;;12.90;99.90;;;;;;4999488;28;20191;-81
2022/06/17 03:18:15;;;;;;;14.00;6.97;;;13.10;99.90;;;;;;5005429;28;20228;-81
2022/06/17 03:20:45;;;;;;;8.50;6.27;;;12.90;99.90;;;;;;5001282;28;20208;-81
2022/06/17 03:23:18;;;;;;;9.33;6.23;;;12.90;99.90;;;;;;5000043;28;20253;-81
2022/06/17 03:26:00;;;;;;;10.30;6.40;;;12.90;99.90;;;;;;5000598;28;20172;-81
2022/06/17 03:28:29;;;;;;;10.57;6.70;;;12.80;99.90;;;;;;5000236;28;20198;-81
2022/06/17 03:31:31;;;;;;;13.60;6.43;;;12.80;99.90;;;;;;5000786;28;20180;-81
2022/06/17 03:34:10;;;;;;;12.33;6.80;;;12.70;99.90;;;;;;5000581;28;20512;-81
2022/06/17 03:36:42;;;;;;;14.37;7.37;;;12.70;99.90;;;;;;4999475;28;20234;-81
2022/06/17 03:39:32;;;;;;;10.13;6.33;;;12.60;99.90;;;;;;5000321;28;20183;-81
2022/06/17 03:42:13;;;;;;;10.77;6.77;;;12.50;99.90;;;;;;5000698;28;20213;-81
2022/06/17 03:45:11;;;;;;;13.50;7.17;;;12.70;99.90;;;;;;5000074;28;20622;-81
2022/06/17 03:47:58;;;;;;;10.80;6.73;;;12.70;99.90;;;;;;4996438;28;20211;-81
2022/06/17 03:50:29;;;;;;;10.70;6.47;;;12.70;99.90;;;;;;5000278;28;20190;-81
2022/06/17 03:53:02;;;;;;;9.87;6.93;;;12.70;99.90;;;;;;4999816;28;20285;-81
2022/06/17 03:55:28;;;;;;;8.70;6.27;;;12.90;99.90;;;;;;5000424;28;20199;-81
2022/06/17 03:57:57;;;;;;;13.83;6.77;;;12.90;99.90;;;;;;5000184;28;20213;-81
2022/06/17 04:00:31;;;;;;;9.77;6.80;;;12.80;99.90;;;;;;4999945;28;20181;-81
2022/06/17 04:02:59;;;;;;;12.80;6.60;;;12.70;99.90;;;;;;4999813;28;20691;-81
2022/06/17 04:05:26;;;;;;;10.97;6.90;;;12.90;99.90;;;;;;4999736;28;20213;-81
2022/06/17 04:07:51;;;;;;;7.77;6.23;;;12.90;99.90;;;;;;4998471;28;20201;-81
2022/06/17 04:10:21;;;;;;;7.77;6.27;;;13.00;99.90;;;;;;4999695;28;20195;-81
2022/06/17 04:12:49;;;;;;;9.47;5.93;;;13.20;99.90;;;;;;4999094;28;20213;-81
2022/06/17 04:15:49;;;;;;;8.23;5.67;;;13.20;99.90;;;;;;4999801;28;20190;-81
2022/06/17 04:18:15;;;;;;;8.17;5.73;;;13.20;99.90;;;;;;4997171;28;20216;-81
2022/06/17 04:20:54;;;;;;;9.47;6.90;;;13.40;99.90;;;;;;4998899;28;20186;-81
2022/06/17 04:23:24;;;;;;;16.70;7.90;;;13.60;99.90;;;;;;4998672;28;20197;-81
2022/06/17 04:26:05;;;;;;;10.33;6.87;;;13.90;99.90;;;;;;4999387;28;20176;-81
2022/06/17 04:28:36;;;;;;;15.70;6.50;;;14.10;99.90;;;;;;4999328;28;20646;-81
2022/06/17 04:31:06;;;;;;;9.27;5.93;;;14.80;99.90;;;;;;4997266;28;20250;-81
2022/06/17 04:33:40;;;;;;;13.60;6.63;;;14.60;99.90;;;;;;4998020;28;20715;-81
2022/06/17 04:36:30;;;;;;;10.83;5.90;;;15.20;99.90;;;;;;4998859;28;20183;-81
2022/06/17 04:39:04;;;;;;;13.43;5.77;;;15.70;99.90;;;;;;4998928;28;20635;-81
2022/06/17 04:41:34;;;;;;;10.20;5.53;;;15.80;99.90;;;;;;4998946;28;20222;-81
2022/06/17 04:44:02;;;;;;;9.20;5.63;;;16.20;99.90;;;;;;4998960;28;20656;-81
2022/06/17 04:46:34;;;;;;;6.50;4.97;;;16.40;99.90;;;;;;4997608;28;20274;-81
2022/06/17 04:49:00;;;;;;;9.83;5.50;;;16.80;99.90;;;;;;4999808;28;20714;-81
2022/06/17 04:51:29;;;;;;;8.70;4.83;;;16.90;99.90;;;;;;4998567;28;20555;-81
2022/06/17 04:53:55;;;;;;;6.00;4.93;;;16.90;99.90;;;;;;4998464;28;20187;-81
2022/06/17 04:56:29;;;;;;;10.90;5.25;;;16.90;99.90;;;;;;4997928;28;20210;-81
2022/06/17 04:58:56;;;;;;;10.68;4.72;;;16.80;99.90;;;;;;4996967;28;20174;-81
2022/06/17 05:01:24;;;;;;;8.43;4.70;;;16.50;99.90;;;;;;4997813;28;20230;-81
2022/06/17 05:03:51;;;;;;;8.02;4.90;;;16.60;99.90;;;;;;4998859;28;20180;-82
2022/06/17 05:06:17;;;;;;;10.38;5.80;;;16.30;99.90;;;;;;4996403;28;20191;-81
2022/06/17 05:08:51;;;;;;;8.18;5.38;;;16.60;99.90;;;;;;4998976;28;20198;-81
2022/06/17 05:11:26;;;;;;;10.85;5.35;;;17.20;99.90;;;;;;4997094;28;20170;-82
2022/06/17 05:13:57;;;;;;;9.38;5.15;;;17.50;99.90;;;;;;4998359;28;20167;-82
2022/06/17 05:16:23;;;;;;;7.75;5.63;;;17.20;99.90;;;;;;4999769;28;20281;-82
2022/06/17 05:18:49;;;;;;;9.98;5.10;;;17.60;99.90;;;;;;5003093;28;20712;-82
2022/06/17 05:21:25;;;;;;;8.02;4.85;;;17.90;99.90;;;;;;4994294;28;20260;-82
2022/06/17 05:23:55;;;;;;;10.43;5.30;;;18.10;99.90;;;;;;4994234;28;20226;-81
2022/06/17 05:26:21;;;;;;;7.30;5.18;;;18.60;99.90;;;;;;4994230;28;20177;-81
2022/06/17 05:28:47;;;;;;;9.32;5.18;;;18.80;99.90;;;;;;4994275;28;20159;-82
2022/06/17 05:31:21;;;;;;;5.65;4.55;;;19.00;99.90;;;;;;4993653;28;20178;-82
2022/06/17 05:33:48;;;;;;;11.40;4.80;;;19.50;99.90;;;;;;4994672;28;20167;-82
2022/06/17 05:36:14;;;;;;;10.63;5.38;;;18.90;99.90;;;;;;4994586;28;20179;-81
2022/06/17 05:38:40;;;;;;;10.15;4.63;;;19.10;99.90;;;;;;4994218;28;20207;-81
2022/06/17 05:41:06;;;;;;;6.63;4.75;;;19.00;99.90;;;;;;4994676;28;20175;-81
2022/06/17 05:43:32;;;;;;;7.75;4.88;;;18.70;99.90;;;;;;4998838;28;20175;-81
2022/06/17 05:45:58;;;;;;;7.28;4.22;;;19.10;99.90;;;;;;4998019;28;20567;-81
2022/06/17 05:48:24;;;;;;;7.05;4.57;;;19.80;99.90;;;;;;4998393;28;20175;-80
2022/06/17 05:50:49;;;;;;;10.75;4.53;;;20.00;99.90;;;;;;4998287;28;20198;-81
2022/06/17 05:53:15;;;;;;;9.70;5.22;;;19.80;99.90;;;;;;4998833;28;20568;-80
2022/06/17 05:55:41;;;;;;;7.25;4.68;;;19.80;99.90;;;;;;4997799;28;20186;-81
2022/06/17 05:58:07;;;;;;;9.45;4.60;;;20.40;99.90;;;;;;4998940;28;20203;-80
2022/06/17 06:00:34;;;;;;;7.15;4.32;;;20.90;99.90;;;;;;4998445;28;20695;-81
2022/06/17 06:03:02;;;;;;;9.23;4.53;;;20.80;99.70;;;;;;4998789;28;20202;-80
2022/06/17 06:05:30;;;;;;;4.38;3.83;;;21.20;98.20;;;;;;4998756;28;20266;-81
2022/06/17 06:07:55;;;;;;;9.23;4.53;;;21.20;97.60;;;;;;4998818;28;20202;-82
2022/06/17 06:10:22;;;;;;;9.40;3.97;;;21.60;97.10;;;;;;5002222;28;20184;-82
2022/06/17 06:12:58;;;;;;;7.10;3.95;;;20.90;97.50;;;;;;5001756;28;20249;-83
2022/06/17 06:15:39;;;;;;;9.27;4.25;;;20.60;98.10;;;;;;5002146;28;20694;-82
2022/06/17 06:18:11;;;;;;;10.15;4.15;;;20.80;98.30;;;;;;4998082;28;20192;-83
2022/06/17 06:20:37;;;;;;;9.05;4.35;;;21.80;97.00;;;;;;4999052;28;20188;-82
2022/06/17 06:23:03;;;;;;;6.53;4.00;;;21.60;96.50;;;;;;4997395;28;20199;-82
2022/06/17 06:25:29;;;;;;;6.93;4.25;;;21.30;96.90;;;;;;4997517;28;20543;-84
2022/06/17 06:27:54;;;;;;;11.18;4.25;;;21.10;96.70;;;;;;4996938;28;20179;-82
2022/06/17 06:30:27;;;;;;;9.65;4.97;;;21.20;96.30;;;;;;4998231;28;20202;-82
2022/06/17 06:32:59;;;;;;;8.10;4.25;;;21.10;96.40;;;;;;4999168;28;20201;-82
2022/06/17 06:35:28;;;;;;;8.20;4.18;;;20.90;96.40;;;;;;4997817;28;20163;-82
2022/06/17 06:37:53;;;;;;;7.95;3.50;;;21.10;96.80;;;;;;4998844;28;20234;-82
2022/06/17 06:40:19;;;;;;;6.80;4.30;;;20.80;97.70;;;;;;4999065;28;20171;-82
2022/06/17 06:42:50;;;;;;;8.73;4.35;;;20.90;97.10;;;;;;4997531;28;20199;-82
2022/06/17 06:45:35;;;;;;;8.85;4.20;;;20.90;97.10;;;;;;4999472;28;20176;-81
2022/06/17 06:48:05;;;;;;;7.40;4.10;;;20.80;97.10;;;;;;4998117;28;20190;-82
2022/06/17 06:50:33;;;;;;;9.30;3.80;;;20.70;96.90;;;;;;4997466;28;20225;-81
2022/06/17 06:52:59;;;;;;;9.55;3.60;;;20.70;97.20;;;;;;4998907;28;20195;-82
2022/06/17 06:55:25;;;;;;;8.63;4.20;;;20.80;96.70;;;;;;4998267;28;20175;-83
2022/06/17 06:57:53;;;;;;;5.28;3.80;;;20.50;97.40;;;;;;4999240;28;20368;-82
2022/06/17 07:00:26;;;;;;;5.38;3.47;;;20.80;97.80;;;;;;4999023;28;20182;-82
2022/06/17 07:02:52;;;;;;;7.50;4.07;;;20.80;97.70;;;;;;4998790;28;20196;-82
2022/06/17 07:05:19;;;;;;;7.30;3.80;;;20.80;97.70;;;;;;4999785;28;20172;-79
2022/06/17 07:07:45;;;;;;;11.43;3.92;;;20.90;97.60;;;;;;4997785;28;20187;-79
2022/06/17 07:10:14;;;;;;;6.38;4.53;;;20.80;98.00;;;;;;5001047;28;20285;-79
2022/06/17 07:12:40;;;;;;;6.78;4.15;;;20.60;97.60;;;;;;4998169;28;20247;-78
2022/06/17 07:15:07;;;;;;;7.90;4.00;;;20.80;98.00;;;;;;4997325;28;20198;-78
2022/06/17 07:17:34;;;;;;;6.78;4.15;;;20.80;97.90;;;;;;4999517;28;20203;-78
2022/06/17 07:19:59;;;;;;;7.40;4.50;;;20.60;98.40;;;;;;4999516;28;20230;-78
2022/06/17 07:22:25;;;;;;;5.80;4.00;;;20.60;98.40;;;;;;4999685;28;20199;-78
2022/06/17 07:24:51;;;;;;;5.60;3.80;;;20.60;98.70;;;;;;4996296;28;20254;-78
2022/06/17 07:27:16;;;;;;;5.57;3.97;;;20.90;97.90;;;;;;4996300;28;20649;-78
2022/06/17 07:29:42;;;;;;;7.28;3.85;;;21.10;97.50;;;;;;4997282;28;20671;-78
2022/06/17 07:32:08;;;;;;;8.15;4.15;;;21.00;97.90;;;;;;5001819;28;20668;-78
2022/06/17 07:34:34;;;;;;;7.57;3.88;;;21.00;97.70;;;;;;4998457;28;20588;-78
2022/06/17 07:39:56;;;;;;;7.22;3.80;;;20.70;98.40;;;;;;4997898;28;20226;-78
2022/06/17 07:42:27;;;;;;;9.45;4.32;;;20.80;98.80;;;;;;4996324;28;20664;-78
2022/06/17 07:44:53;;;;;;;9.27;4.03;;;21.00;97.70;;;;;;5001856;28;20183;-78
2022/06/17 07:47:22;;;;;;;14.68;3.88;;;20.90;98.40;;;;;;4999108;28;20281;-78
2022/06/17 07:49:48;;;;;;;9.45;3.88;;;21.10;98.50;;;;;;4998200;28;20183;-78
2022/06/17 07:52:13;;;;;;;7.25;3.80;;;21.00;98.50;;;;;;5001352;28;20223;-78
2022/06/17 07:54:39;;;;;;;6.43;4.22;;;21.10;98.30;;;;;;4998241;28;20215;-78
2022/06/17 07:57:05;;;;;;;8.43;4.00;;;21.10;97.70;;;;;;5007771;28;20199;-78
2022/06/17 07:59:31;;;;;;;8.20;4.40;;;21.00;98.90;;;;;;5006388;28;20206;-78
2022/06/17 08:01:57;;;;;;;5.40;3.80;;;21.00;98.60;;;;;;5005075;28;20198;-79
2022/06/17 08:04:23;;;;;;;8.25;4.55;;;21.10;97.10;;;;;;5004678;28;20198;-79
2022/06/17 08:06:51;;;;;;;6.20;3.70;;;20.90;97.90;;;;;;5000245;28;20215;-80
2022/06/17 08:09:18;;;;;;;4.80;4.13;;;21.00;97.30;;;;;;4997496;28;20263;-81
2022/06/17 08:11:45;;;;;;;6.43;3.80;;;21.40;97.20;;;;;;4997706;28;20203;-82
2022/06/17 08:14:11;;;;;;;9.82;4.07;;;22.00;96.70;;;;;;4998241;28;20182;-80
2022/06/17 08:16:38;;;;;;;12.45;3.67;;;21.90;95.70;;;;;;4995502;28;20185;-79
2022/06/17 08:19:07;;;;;;;5.78;3.50;;;22.60;94.90;;;;;;4994539;28;20525;-80
2022/06/17 08:21:33;;;;;;;6.45;3.67;;;22.70;94.40;;;;;;4994593;28;20664;-80
2022/06/17 08:24:00;;;;;;;4.85;3.10;;;23.00;94.00;;;;;;4995280;28;20176;-80
2022/06/17 08:26:26;;;;;;;7.03;3.13;;;23.70;93.10;;;;;;4998837;28;20175;-79
2022/06/17 08:28:51;;;;;;;8.85;3.92;;;23.70;93.80;;;;;;4997399;28;20195;-79
2022/06/17 08:31:17;;;;;;;6.38;3.28;;;23.60;92.90;;;;;;4998463;28;20194;-79
2022/06/17 08:33:43;;;;;;;7.25;3.13;;;23.30;92.50;;;;;;4999064;28;20191;-79
2022/06/17 08:36:21;;;;;;;5.55;3.13;;;24.30;91.70;;;;;;4999157;28;20181;-78
2022/06/17 08:38:51;;;;;;;5.85;3.00;;;23.90;91.50;;;;;;4998733;28;20203;-78
2022/06/17 08:41:28;;;;;;;5.28;2.80;;;24.80;90.30;;;;;;4997547;28;20176;-78
2022/06/17 08:44:17;;;;;;;6.55;2.75;;;24.70;90.40;;;;;;4998642;28;20183;-78
2022/06/17 08:47:13;;;;;;;10.75;2.95;;;24.80;88.70;;;;;;4999496;28;20251;-79
2022/06/17 08:50:10;;;;;;;7.00;3.30;;;25.00;90.40;;;;;;4997513;28;20175;-80
2022/06/17 08:52:54;;;;;;;4.53;2.60;;;24.20;88.40;;;;;;4998377;28;20571;-79
2022/06/17 08:55:31;;;;;;;7.22;2.80;;;24.90;88.50;;;;;;4983553;28;20595;-78
2022/06/17 08:58:14;;;;;;;5.97;2.83;;;25.10;88.40;;;;;;4981712;28;20274;-79
2022/06/17 09:00:49;;;;;;;7.20;3.30;;;25.80;85.80;;;;;;4982972;28;20263;-79
2022/06/17 09:03:42;;;;;;;3.78;2.60;;;25.90;86.70;;;;;;4983414;28;20188;-79
2022/06/17 09:06:32;;;;;;;9.75;2.80;;;25.60;84.40;;;;;;4981907;28;20187;-79
2022/06/17 09:09:07;;;;;;;10.90;2.67;;;25.90;86.20;;;;;;4982230;28;20168;-79
2022/06/17 09:11:44;;;;;;;2.83;2.35;;;26.60;85.60;;;;;;4982149;28;20195;-79
2022/06/17 09:14:36;;;;;;;5.53;2.78;;;26.80;84.50;;;;;;4980650;28;20176;-79
2022/06/17 09:17:19;;;;;;;9.00;2.60;;;25.80;84.90;;;;;;4981712;28;20211;-79
2022/06/17 09:19:48;;;;;;;5.90;2.83;;;26.40;84.30;;;;;;4982176;28;20195;-79
2022/06/17 09:22:45;;;;;;;3.92;2.97;;;26.40;83.80;;;;;;4982489;28;20223;-79
2022/06/17 09:25:16;;;;;;;4.88;2.42;;;25.60;82.80;;;;;;4982999;28;20201;-78
2022/06/17 09:27:49;;;;;;;4.35;2.25;;;25.60;83.30;;;;;;4981319;28;20243;-79
2022/06/17 09:30:32;;;;;;;4.03;2.08;;;26.70;81.50;;;;;;4982277;28;20183;-79
2022/06/17 09:33:06;;;;;;;5.40;2.42;;;27.00;80.90;;;;;;5000877;28;20199;-78
2022/06/17 09:35:59;;;;;;;3.53;2.17;;;27.30;82.90;;;;;;5002390;28;20178;-80
2022/06/17 09:38:34;;;;;;;4.45;2.25;;;27.70;77.50;;;;;;5001833;28;20210;-80
2022/06/17 09:41:09;;;;;;;5.18;1.90;;;27.60;79.90;;;;;;5003334;28;20190;-80
2022/06/17 09:43:53;;;;;;;7.55;2.20;;;27.90;78.00;;;;;;5003157;28;20176;-80
2022/06/17 09:46:30;;;;;;;2.72;2.03;;;28.00;75.80;;;;;;5000752;28;20480;-80
2022/06/17 09:49:07;;;;;;;6.70;2.13;;;27.60;76.30;;;;;;4997492;28;20174;-80
2022/06/17 09:51:48;;;;;;;2.20;2.00;;;27.50;78.30;;;;;;4996249;28;20255;-81
2022/06/17 09:54:39;;;;;;;2.70;2.30;;;26.60;78.50;;;;;;4995317;28;20221;-82
2022/06/17 09:57:12;;;;;;;5.63;2.25;;;26.60;77.10;;;;;;4993889;28;20606;-83
2022/06/17 09:59:47;;;;;;;4.68;2.28;;;27.40;77.20;;;;;;4993572;28;20162;-83
2022/06/17 10:02:19;;;;;;;7.65;1.90;;;27.30;77.70;;;;;;4992702;28;20198;-82
2022/06/17 10:04:44;;;;;;;6.82;2.53;;;26.90;76.60;;;;;;4993860;28;20602;-82
2022/06/17 10:07:22;;;;;;;3.03;1.90;;;26.40;76.70;;;;;;4994098;28;20224;-82
2022/06/17 10:10:06;;;;;;;5.40;2.30;;;25.90;76.10;;;;;;4994163;28;20202;-81
2022/06/17 10:12:41;;;;;;;6.40;1.92;;;26.90;75.30;;;;;;4994618;28;20195;-81
2022/06/17 10:15:25;;;;;;;5.38;1.98;;;26.60;77.80;;;;;;4996517;28;20163;-81
2022/06/17 10:18:32;;;;;;;3.55;2.15;;;26.90;76.00;;;;;;5001181;28;20230;-81
2022/06/17 10:21:33;;;;;;;7.03;2.42;;;26.50;75.80;;;;;;5005439;28;20198;-81
2022/06/17 10:24:30;;;;;;;5.05;2.20;;;26.30;77.40;;;;;;5007559;28;20167;-81
2022/06/17 10:27:11;;;;;;;5.55;2.47;;;26.60;76.40;;;;;;5003844;28;20219;-81
2022/06/17 10:29:46;;;;;;;5.47;2.33;;;27.00;76.80;;;;;;5003153;28;20194;-81
2022/06/17 10:32:12;;;;;;;12.65;2.38;;;26.40;75.70;;;;;;5005164;28;20194;-79
2022/06/17 10:34:45;;;;;;;9.43;2.38;;;26.50;75.80;;;;;;5001212;28;20229;-81
2022/06/17 10:37:12;;;;;;;4.68;1.95;;;27.30;76.60;;;;;;5004383;28;20222;-80
2022/06/17 10:39:39;;;;;;;9.43;2.45;;;27.30;74.70;;;;;;5003344;28;20172;-82
2022/06/17 10:42:09;;;;;;;4.07;1.98;;;27.60;76.90;;;;;;5000930;28;20191;-81
2022/06/17 10:44:37;;;;;;;4.28;2.90;;;27.60;76.20;;;;;;5007383;28;20266;-82
2022/06/17 10:47:14;;;;;;;7.82;2.45;;;26.30;74.70;;;;;;5008013;28;20187;-81
2022/06/17 10:49:47;;;;;;;5.85;2.13;;;26.70;75.60;;;;;;5004754;28;20175;-82
2022/06/17 10:52:29;;;;;;;2.60;2.40;;;28.00;76.30;;;;;;5002336;28;20203;-81
2022/06/17 10:54:56;;;;;;;6.60;2.45;;;27.90;75.50;;;;;;5004913;28;20230;-81
2022/06/17 10:57:28;;;;;;;7.50;2.38;;;27.60;74.40;;;;;;5003424;28;20210;-81
2022/06/17 10:59:54;;;;;;;7.72;2.85;;;27.50;74.30;;;;;;5005333;28;20534;-82
2022/06/17 11:02:30;;;;;;;7.38;2.42;;;27.30;75.20;;;;;;5002475;28;20286;-83
2022/06/17 11:04:56;;;;;;;5.07;1.73;;;27.50;74.30;;;;;;4999689;28;20171;-81
2022/06/17 11:07:36;;;;;;;7.22;1.95;;;27.70;72.80;;;;;;4998964;28;20290;-83
2022/06/17 11:10:04;;;;;;;2.33;1.75;;;28.30;75.00;;;;;;5000761;28;20269;-83
2022/06/17 11:12:37;;;;;;;2.47;1.75;;;29.70;73.60;;;;;;4998591;28;20583;-83
2022/06/17 11:15:23;;;;;;;2.83;1.67;;;29.30;70.00;;;;;;4997563;28;20222;-81
2022/06/17 11:17:51;;;;;;;4.05;1.60;;;28.60;69.90;;;;;;4996133;28;20199;-82
2022/06/17 11:20:46;;;;;;;3.92;1.65;;;28.60;69.80;;;;;;4997138;28;20172;-80
2022/06/17 11:23:27;;;;;;;2.00;1.33;;;27.90;70.40;;;;;;4983551;28;20219;-83
2022/06/17 11:26:21;;;;;;;4.35;1.73;;;27.70;70.10;;;;;;4998419;28;20237;-81
2022/06/17 11:29:21;;;;;;;3.30;1.48;;;28.20;70.50;;;;;;4997688;28;20167;-81
2022/06/17 11:31:49;;;;;;;4.70;1.58;;;27.80;72.90;;;;;;4984077;28;20290;-81
2022/06/17 11:34:26;;;;;;;1.73;1.50;;;28.30;72.10;;;;;;4996336;28;20225;-82
2022/06/17 11:37:24;;;;;;;1.77;1.48;;;28.00;72.20;;;;;;4997114;28;20209;-81
2022/06/17 11:40:08;;;;;;;1.60;1.50;;;27.60;71.60;;;;;;4985201;28;20183;-83
2022/06/17 11:42:42;;;;;;;4.25;1.65;;;27.90;72.00;;;;;;4996113;28;20195;-83
2022/06/17 11:45:16;;;;;;;4.85;1.67;;;28.00;70.80;;;;;;4996234;28;20184;-83
2022/06/17 11:47:47;;;;;;;2.20;1.73;;;27.20;71.40;;;;;;4994835;28;20166;-82
2022/06/17 11:50:21;;;;;;;4.57;1.52;;;27.50;73.70;;;;;;4995885;28;20240;-80
2022/06/17 11:52:48;;;;;;;1.95;1.70;;;27.80;71.00;;;;;;4997164;28;20671;-80
2022/06/17 11:55:15;;;;;;;2.95;1.90;;;27.80;70.70;;;;;;4996680;28;20176;-80
2022/06/17 11:57:41;;;;;;;5.70;1.77;;;28.00;74.00;;;;;;4997603;28;20802;-80
2022/06/17 12:00:24;;;;;;;3.10;1.80;;;28.10;71.70;;;;;;4996048;28;20221;-82
2022/06/17 12:03:00;;;;;;;6.15;1.63;;;28.10;72.50;;;;;;4995492;28;20215;-82
2022/06/17 12:05:32;;;;;;;5.88;1.63;;;28.10;70.90;;;;;;4994799;28;20175;-81
2022/06/17 12:08:01;;;;;;;1.95;1.50;;;28.10;71.60;;;;;;4995873;28;20187;-82
2022/06/17 12:10:29;;;;;;;2.28;1.60;;;28.20;70.50;;;;;;4995359;28;20186;-81
2022/06/17 12:13:11;;;;;;;1.65;1.55;;;28.40;70.20;;;;;;4995936;28;20208;-82
2022/06/17 12:15:47;;;;;;;3.03;1.77;;;28.00;72.20;;;;;;4995346;28;20179;-82
2022/06/17 12:18:22;;;;;;;2.42;1.60;;;28.30;69.70;;;;;;4995278;28;20654;-83
2022/06/17 12:21:02;;;;;;;2.30;1.50;;;28.30;70.50;;;;;;4995266;28;20171;-83
2022/06/17 12:23:43;;;;;;;2.15;1.80;;;28.40;68.60;;;;;;4994312;28;20255;-83
2022/06/17 12:26:29;;;;;;;2.55;1.70;;;27.50;70.30;;;;;;4994850;28;20238;-83
2022/06/17 12:29:25;;;;;;;2.08;1.88;;;28.00;71.70;;;;;;4995470;28;20718;-82
2022/06/17 12:31:56;;;;;;;5.80;1.92;;;28.30;70.10;;;;;;4993313;28;20296;-82
2022/06/17 12:34:46;;;;;;;2.60;1.60;;;28.10;71.10;;;;;;4992632;28;20172;-84
2022/06/17 12:37:16;;;;;;;4.15;1.52;;;28.20;71.70;;;;;;4993136;28;20229;-82
2022/06/17 12:40:03;;;;;;;7.43;1.70;;;28.50;71.30;;;;;;4993012;28;20294;-82
2022/06/17 12:42:49;;;;;;;12.52;1.83;;;28.50;72.80;;;;;;4993850;28;20206;-83
2022/06/17 12:45:23;;;;;;;5.80;1.83;;;28.10;71.30;;;;;;4993728;28;20171;-81
2022/06/17 12:48:07;;;;;;;5.13;1.73;;;27.50;70.00;;;;;;4994005;28;20266;-82
2022/06/17 12:53:44;;;;;;;3.97;1.70;;;28.40;69.60;;;;;;4997797;28;20823;-86
2022/06/17 12:56:25;;;;;;;12.70;2.22;;;27.80;72.80;;;;;;4994834;28;20624;-83
2022/06/17 12:58:53;;;;;;;5.43;2.03;;;28.00;71.50;;;;;;4992878;28;20304;-85
2022/06/17 13:01:46;;;;;;;3.22;1.98;;;28.10;72.10;;;;;;4992857;28;20538;-85
2022/06/17 13:04:37;;;;;;;6.70;1.88;;;28.10;71.10;;;;;;4993334;28;20217;-83
2022/06/17 13:07:30;;;;;;;6.40;2.10;;;28.30;73.70;;;;;;4989680;28;20211;-80
2022/06/17 13:13:20;;;;;;;4.30;2.05;;;27.90;70.90;;;;;;4997313;28;20194;-84
2022/06/17 13:15:59;;;;;;;2.55;1.83;;;27.90;71.40;;;;;;4994140;28;20163;-84
2022/06/17 13:18:38;;;;;;;2.92;1.80;;;27.80;70.80;;;;;;4993429;28;20191;-83
2022/06/17 13:21:26;;;;;;;4.78;2.10;;;27.60;71.90;;;;;;4993911;28;20166;-82
2022/06/17 13:24:08;;;;;;;6.03;2.03;;;27.80;74.00;;;;;;4991975;28;20215;-82
2022/06/17 13:27:04;;;;;;;4.45;1.90;;;28.00;72.90;;;;;;4991808;28;20198;-82
2022/06/17 13:29:50;;;;;;;8.32;1.88;;;27.50;72.90;;;;;;4991224;28;20226;-81